Time;durP1;ratioP1;P1;durP2;ratioP2;P2;SDS_P1;SDS_P2;PMS_P1;PMS_P2;Temp;Humidity;BMP_temperature;BMP_pressure;BME280_temperature;BME280_humidity;BME280_pressure;Samples;Min_cycle;Max_cycle;Signal;HPM_P1;HPM_P2
2021/07/03 00:01:54;;;;;;;0.80;0.80;;;16.90;99.90;;;;;;4959822;28;20522;-78
2021/07/03 00:04:20;;;;;;;1.90;1.13;;;16.90;99.90;;;;;;4961749;29;20426;-77
2021/07/03 00:06:46;;;;;;;1.67;1.53;;;16.80;99.90;;;;;;4957157;28;20956;-78
2021/07/03 00:09:12;;;;;;;0.80;0.60;;;16.80;99.90;;;;;;4952685;29;20234;-77
2021/07/03 00:11:37;;;;;;;3.57;1.13;;;16.80;99.90;;;;;;4962137;28;20194;-78
2021/07/03 00:14:03;;;;;;;1.57;0.80;;;16.70;99.90;;;;;;4964422;28;20439;-77
2021/07/03 00:16:29;;;;;;;1.30;1.20;;;16.70;99.90;;;;;;4962276;28;20225;-78
2021/07/03 00:18:55;;;;;;;4.20;1.40;;;16.70;99.90;;;;;;4959506;28;20477;-77
2021/07/03 00:21:20;;;;;;;0.80;0.70;;;16.70;99.90;;;;;;4962162;28;20206;-78
2021/07/03 00:23:46;;;;;;;1.00;0.90;;;16.70;99.90;;;;;;4963613;28;20454;-78
2021/07/03 00:26:11;;;;;;;1.10;0.97;;;16.60;99.90;;;;;;4962663;28;20258;-78
2021/07/03 00:28:37;;;;;;;1.20;1.00;;;16.60;99.90;;;;;;4963020;28;20210;-77
2021/07/03 00:31:03;;;;;;;1.40;1.23;;;16.60;99.90;;;;;;4961634;28;20195;-78
2021/07/03 00:33:28;;;;;;;1.20;1.00;;;16.50;99.90;;;;;;4962512;28;20193;-78
2021/07/03 00:35:54;;;;;;;3.03;0.90;;;16.50;99.90;;;;;;4966075;28;20174;-78
2021/07/03 00:38:19;;;;;;;1.07;0.97;;;16.50;99.90;;;;;;4958756;28;20193;-78
2021/07/03 00:40:45;;;;;;;3.00;2.40;;;16.50;99.90;;;;;;4966209;29;20237;-78
2021/07/03 00:43:11;;;;;;;1.67;1.23;;;16.40;99.90;;;;;;4963623;28;20277;-79
2021/07/03 00:45:36;;;;;;;0.80;0.70;;;16.40;99.90;;;;;;4966191;28;20197;-79
2021/07/03 00:48:02;;;;;;;1.60;1.50;;;16.40;99.90;;;;;;4967219;28;20189;-78
2021/07/03 00:50:28;;;;;;;1.90;1.00;;;16.30;99.90;;;;;;4958303;28;20212;-78
2021/07/03 00:52:54;;;;;;;0.80;0.70;;;16.30;99.90;;;;;;4968924;28;20869;-78
2021/07/03 00:55:20;;;;;;;1.17;0.90;;;16.30;99.90;;;;;;4964871;28;20186;-78
2021/07/03 00:57:45;;;;;;;3.50;3.30;;;16.20;99.90;;;;;;4964711;28;20521;-78
2021/07/03 01:00:13;;;;;;;2.67;2.47;;;16.10;99.90;;;;;;4964431;28;20238;-78
2021/07/03 01:02:39;;;;;;;1.47;1.37;;;16.00;99.90;;;;;;4976200;28;20437;-78
2021/07/03 01:05:06;;;;;;;0.90;0.90;;;16.00;99.90;;;;;;4961953;28;20709;-78
2021/07/03 01:07:33;;;;;;;2.63;1.17;;;16.10;99.90;;;;;;4966238;28;20444;-79
2021/07/03 01:09:58;;;;;;;1.87;1.10;;;16.10;99.90;;;;;;4955309;28;20807;-78
2021/07/03 01:12:24;;;;;;;1.00;0.90;;;16.10;99.90;;;;;;4958176;29;20501;-78
2021/07/03 01:14:51;;;;;;;1.53;0.60;;;16.10;99.90;;;;;;4962697;28;20608;-78
2021/07/03 01:17:17;;;;;;;0.90;0.80;;;16.10;99.90;;;;;;4966692;29;20178;-79
2021/07/03 01:19:44;;;;;;;1.23;1.13;;;16.20;99.90;;;;;;4967520;29;20461;-79
2021/07/03 01:22:12;;;;;;;0.70;0.53;;;16.20;99.90;;;;;;4968334;29;20422;-79
2021/07/03 01:24:39;;;;;;;0.97;0.87;;;16.20;99.90;;;;;;4966237;29;20470;-78
2021/07/03 01:27:05;;;;;;;2.13;1.60;;;16.20;99.90;;;;;;4967453;28;20508;-78
2021/07/03 01:29:34;;;;;;;1.07;1.00;;;16.10;99.90;;;;;;4968623;28;20454;-78
2021/07/03 01:32:02;;;;;;;1.10;1.00;;;16.00;99.90;;;;;;4968278;28;20422;-79
2021/07/03 01:34:29;;;;;;;1.00;0.63;;;16.00;99.90;;;;;;4966274;28;20457;-77
2021/07/03 01:36:56;;;;;;;1.40;1.30;;;16.00;99.90;;;;;;4962992;29;20433;-78
2021/07/03 01:39:23;;;;;;;2.53;0.97;;;16.00;99.90;;;;;;4967055;28;20490;-78
2021/07/03 01:41:50;;;;;;;11.47;2.07;;;16.00;99.90;;;;;;4965514;29;20418;-78
2021/07/03 01:44:23;;;;;;;2.73;2.53;;;16.00;99.90;;;;;;4967131;28;20422;-78
2021/07/03 01:46:50;;;;;;;1.90;1.23;;;16.10;99.90;;;;;;4957210;28;20418;-78
2021/07/03 01:49:15;;;;;;;1.43;1.33;;;16.00;99.90;;;;;;4950135;28;20503;-78
2021/07/03 01:51:41;;;;;;;2.13;2.03;;;16.10;99.90;;;;;;4958299;29;20425;-78
2021/07/03 01:54:06;;;;;;;2.23;2.13;;;16.10;99.90;;;;;;4957884;29;20178;-79
2021/07/03 01:56:32;;;;;;;1.40;1.30;;;16.10;99.90;;;;;;4961372;29;20181;-78
2021/07/03 01:58:57;;;;;;;5.37;4.93;;;16.10;99.90;;;;;;4961685;29;20195;-78
2021/07/03 02:01:23;;;;;;;0.80;0.80;;;16.20;99.90;;;;;;4965725;29;20197;-78
2021/07/03 02:03:48;;;;;;;3.43;1.60;;;16.20;99.90;;;;;;4957963;29;20194;-78
2021/07/03 02:06:14;;;;;;;2.33;2.23;;;16.10;99.90;;;;;;4957583;29;20179;-78
2021/07/03 02:08:39;;;;;;;1.00;0.90;;;16.10;99.90;;;;;;4946941;29;20177;-79
2021/07/03 02:11:05;;;;;;;2.50;2.30;;;16.10;99.90;;;;;;4955709;29;20183;-78
2021/07/03 02:13:31;;;;;;;2.07;1.97;;;16.10;99.90;;;;;;4963275;29;20178;-78
2021/07/03 02:15:57;;;;;;;0.90;0.80;;;16.10;99.90;;;;;;4950135;29;20175;-78
2021/07/03 02:18:22;;;;;;;2.50;1.33;;;16.10;99.90;;;;;;4946545;28;20449;-78
2021/07/03 02:20:49;;;;;;;1.77;1.67;;;16.20;99.90;;;;;;4952173;29;20201;-78
2021/07/03 02:23:16;;;;;;;1.20;1.10;;;16.20;99.90;;;;;;4964177;29;20585;-78
2021/07/03 02:25:42;;;;;;;1.53;1.17;;;16.20;99.90;;;;;;4964965;29;20517;-79
2021/07/03 02:28:07;;;;;;;2.20;2.00;;;16.20;99.90;;;;;;4958003;28;20422;-78
2021/07/03 02:30:33;;;;;;;2.40;1.30;;;16.20;99.90;;;;;;4965195;29;20201;-78
2021/07/03 02:32:59;;;;;;;1.17;1.07;;;16.20;99.90;;;;;;4964615;29;20190;-78
2021/07/03 02:35:26;;;;;;;2.03;1.70;;;16.10;99.90;;;;;;4965467;29;20182;-78
2021/07/03 02:37:52;;;;;;;1.40;1.30;;;16.20;99.90;;;;;;4965892;29;20424;-78
2021/07/03 02:40:18;;;;;;;2.37;2.00;;;16.20;99.90;;;;;;4965465;29;20506;-78
2021/07/03 02:42:45;;;;;;;2.70;1.30;;;16.20;99.90;;;;;;4964367;28;20167;-78
2021/07/03 02:45:13;;;;;;;1.67;1.57;;;16.20;99.90;;;;;;4965689;28;20428;-78
2021/07/03 02:47:39;;;;;;;1.40;1.30;;;16.20;99.90;;;;;;4965988;28;20449;-78
2021/07/03 02:50:07;;;;;;;1.23;1.13;;;16.20;99.90;;;;;;4960064;29;20438;-78
2021/07/03 02:52:33;;;;;;;1.40;1.30;;;16.10;99.90;;;;;;4956414;29;20438;-77
2021/07/03 02:54:59;;;;;;;1.97;1.87;;;16.10;99.90;;;;;;4965269;28;20421;-78
2021/07/03 02:57:25;;;;;;;1.10;1.00;;;16.10;99.90;;;;;;4965980;28;20182;-79
2021/07/03 02:59:51;;;;;;;1.87;1.60;;;16.10;99.90;;;;;;4964763;29;20476;-78
2021/07/03 03:02:16;;;;;;;1.73;1.40;;;16.10;99.90;;;;;;4966895;28;20434;-78
2021/07/03 03:04:42;;;;;;;1.23;1.13;;;16.00;99.90;;;;;;4964788;29;20721;-78
2021/07/03 03:07:07;;;;;;;2.60;2.07;;;16.00;99.90;;;;;;4965768;29;20170;-78
2021/07/03 03:09:33;;;;;;;3.13;1.03;;;16.00;99.90;;;;;;4964574;29;20197;-78
2021/07/03 03:11:58;;;;;;;2.67;2.47;;;15.90;99.90;;;;;;4965450;29;20170;-78
2021/07/03 03:14:24;;;;;;;0.90;0.90;;;15.90;99.90;;;;;;4964491;29;20206;-77
2021/07/03 03:16:50;;;;;;;1.40;1.30;;;15.90;99.90;;;;;;4957682;29;20174;-78
2021/07/03 03:19:16;;;;;;;4.37;2.67;;;15.90;99.90;;;;;;4962212;29;20225;-78
2021/07/03 03:21:41;;;;;;;1.60;0.83;;;15.90;99.90;;;;;;4965285;29;20430;-79
2021/07/03 03:24:07;;;;;;;1.13;1.07;;;15.90;99.90;;;;;;4961872;28;20182;-79
2021/07/03 03:26:33;;;;;;;4.10;2.83;;;15.90;99.90;;;;;;4957215;28;20738;-78
2021/07/03 03:28:58;;;;;;;1.67;1.57;;;15.80;99.90;;;;;;4957970;28;20194;-78
2021/07/03 03:31:24;;;;;;;4.73;2.33;;;15.80;99.90;;;;;;4965837;28;20233;-79
2021/07/03 03:33:49;;;;;;;3.57;2.80;;;15.80;99.90;;;;;;4965521;28;20313;-79
2021/07/03 03:36:15;;;;;;;1.60;1.50;;;15.80;99.90;;;;;;4967178;28;20759;-78
2021/07/03 03:38:41;;;;;;;3.50;2.43;;;15.80;99.90;;;;;;4961368;28;20189;-78
2021/07/03 03:41:06;;;;;;;1.90;1.73;;;15.80;99.90;;;;;;4960014;28;20454;-78
2021/07/03 03:43:32;;;;;;;2.30;2.20;;;15.70;99.90;;;;;;4961176;29;20182;-79
2021/07/03 03:45:57;;;;;;;1.20;1.10;;;15.60;99.90;;;;;;4968023;28;20182;-79
2021/07/03 03:48:23;;;;;;;2.63;1.47;;;15.60;99.90;;;;;;4977410;28;20189;-78
2021/07/03 03:50:48;;;;;;;1.83;1.40;;;15.60;99.90;;;;;;4955498;29;20199;-78
2021/07/03 03:53:14;;;;;;;2.30;2.20;;;15.50;99.90;;;;;;4962466;29;20186;-78
2021/07/03 03:55:39;;;;;;;3.93;1.63;;;15.60;99.90;;;;;;4956235;28;20241;-79
2021/07/03 03:58:05;;;;;;;0.73;0.67;;;15.50;99.90;;;;;;4958187;28;20210;-78
2021/07/03 04:00:31;;;;;;;6.87;1.53;;;15.50;99.90;;;;;;4953976;29;20216;-78
2021/07/03 04:02:56;;;;;;;2.10;1.93;;;15.50;99.90;;;;;;4959302;29;20167;-78
2021/07/03 04:05:22;;;;;;;1.30;1.20;;;15.40;99.90;;;;;;4954794;28;20190;-78
2021/07/03 04:07:47;;;;;;;2.83;2.30;;;15.50;99.90;;;;;;4965796;29;20655;-78
2021/07/03 04:10:14;;;;;;;2.60;2.20;;;15.60;99.90;;;;;;4966000;28;20193;-78
2021/07/03 04:12:41;;;;;;;1.67;1.43;;;15.70;99.90;;;;;;4958811;28;20229;-78
2021/07/03 04:15:08;;;;;;;1.77;1.67;;;15.70;99.90;;;;;;4964001;28;20532;-78
2021/07/03 04:17:34;;;;;;;2.20;1.00;;;15.70;99.90;;;;;;4967701;28;20429;-78
2021/07/03 04:19:59;;;;;;;2.73;2.50;;;15.80;99.90;;;;;;4963713;28;20580;-79
2021/07/03 04:22:25;;;;;;;1.27;1.17;;;15.70;99.90;;;;;;4959132;28;20434;-78
2021/07/03 04:24:51;;;;;;;1.17;0.90;;;15.80;99.90;;;;;;4956922;28;20703;-77
2021/07/03 04:27:17;;;;;;;1.20;1.10;;;15.70;99.90;;;;;;4963907;28;20182;-78
2021/07/03 04:29:45;;;;;;;1.80;1.70;;;15.70;99.90;;;;;;4964680;28;20233;-78
2021/07/03 04:32:11;;;;;;;2.83;1.70;;;15.60;99.90;;;;;;4963699;28;20174;-79
2021/07/03 04:34:36;;;;;;;4.13;2.40;;;15.70;99.90;;;;;;4961726;28;20426;-79
2021/07/03 04:37:02;;;;;;;1.83;1.63;;;15.70;99.90;;;;;;4962749;29;20193;-79
2021/07/03 04:39:28;;;;;;;2.03;1.83;;;15.60;99.90;;;;;;4950509;28;20264;-79
2021/07/03 04:41:54;;;;;;;2.70;1.77;;;15.70;99.90;;;;;;4960855;28;20512;-78
2021/07/03 04:44:20;;;;;;;7.10;1.50;;;15.70;99.90;;;;;;4959614;28;20298;-78
2021/07/03 04:46:46;;;;;;;4.00;3.70;;;15.70;99.90;;;;;;4963204;28;20178;-79
2021/07/03 04:49:12;;;;;;;0.80;0.60;;;15.70;99.90;;;;;;4966536;28;20458;-78
2021/07/03 04:51:38;;;;;;;2.30;2.10;;;15.70;99.90;;;;;;4963370;28;20437;-79
2021/07/03 04:54:04;;;;;;;3.00;2.80;;;15.80;99.90;;;;;;4958963;28;20502;-77
2021/07/03 04:56:30;;;;;;;2.23;2.03;;;15.80;99.90;;;;;;4945829;29;20186;-77
2021/07/03 04:58:56;;;;;;;20.27;2.57;;;15.80;99.90;;;;;;4959133;28;20229;-78
2021/07/03 05:01:22;;;;;;;1.67;1.00;;;15.80;99.90;;;;;;4962718;28;20214;-78
2021/07/03 05:03:48;;;;;;;3.13;2.43;;;15.80;99.90;;;;;;4959429;28;20434;-77
2021/07/03 05:06:13;;;;;;;1.73;1.63;;;15.90;99.90;;;;;;4961923;28;21003;-78
2021/07/03 05:08:39;;;;;;;1.17;1.07;;;15.90;99.90;;;;;;4962057;28;20254;-78
2021/07/03 05:11:05;;;;;;;1.67;1.57;;;15.90;99.90;;;;;;4960876;28;20242;-78
2021/07/03 05:13:30;;;;;;;2.00;1.00;;;15.90;99.90;;;;;;4961316;28;20250;-78
2021/07/03 05:15:56;;;;;;;1.97;1.67;;;15.80;99.90;;;;;;4961009;28;20210;-77
2021/07/03 05:18:22;;;;;;;1.30;1.20;;;15.80;99.90;;;;;;4961323;28;20206;-78
2021/07/03 05:20:48;;;;;;;0.70;0.50;;;15.90;99.90;;;;;;4970917;28;20249;-78
2021/07/03 05:23:13;;;;;;;1.87;1.10;;;15.90;99.90;;;;;;4957509;29;20434;-78
2021/07/03 05:25:44;;;;;;;1.57;1.47;;;16.00;99.90;;;;;;4962077;28;20197;-78
2021/07/03 05:28:10;;;;;;;1.63;1.00;;;16.00;99.90;;;;;;4957169;28;20183;-78
2021/07/03 05:30:36;;;;;;;1.27;1.13;;;16.10;99.90;;;;;;4950591;28;20819;-79
2021/07/03 05:33:02;;;;;;;1.70;1.30;;;16.30;99.90;;;;;;4956597;28;20525;-77
2021/07/03 05:35:27;;;;;;;2.03;1.83;;;16.30;99.90;;;;;;4952036;28;20430;-78
2021/07/03 05:37:53;;;;;;;3.10;1.80;;;16.30;99.90;;;;;;4953184;29;20249;-78
2021/07/03 05:40:18;;;;;;;3.50;1.27;;;16.50;99.90;;;;;;4958105;28;20644;-78
2021/07/03 05:42:45;;;;;;;3.23;2.03;;;16.60;99.90;;;;;;4955749;28;20182;-77
2021/07/03 05:45:14;;;;;;;2.17;1.83;;;16.60;99.90;;;;;;4955874;28;20201;-78
2021/07/03 05:47:40;;;;;;;2.33;1.83;;;16.70;99.90;;;;;;4954162;28;20840;-77
2021/07/03 05:50:06;;;;;;;3.37;3.07;;;16.70;99.90;;;;;;4948005;28;20480;-79
2021/07/03 05:52:32;;;;;;;1.67;1.30;;;16.80;99.90;;;;;;4952417;28;20497;-76
2021/07/03 05:54:58;;;;;;;2.13;1.93;;;16.90;99.90;;;;;;4953681;29;20520;-77
2021/07/03 05:57:26;;;;;;;4.53;2.53;;;16.90;99.90;;;;;;4954943;28;20444;-77
2021/07/03 05:59:52;;;;;;;8.00;3.77;;;17.00;99.90;;;;;;4947469;28;20691;-77
2021/07/03 06:02:17;;;;;;;3.00;1.83;;;17.00;99.90;;;;;;4954152;28;20508;-77
2021/07/03 06:04:43;;;;;;;2.83;2.63;;;17.20;99.90;;;;;;4947342;29;20640;-78
2021/07/03 06:07:08;;;;;;;1.10;1.00;;;17.20;99.90;;;;;;4961224;28;20182;-79
2021/07/03 06:09:34;;;;;;;2.03;1.80;;;17.40;99.90;;;;;;4962087;28;20201;-79
2021/07/03 06:11:59;;;;;;;2.87;2.70;;;17.50;99.90;;;;;;4960695;28;20189;-79
2021/07/03 06:14:25;;;;;;;5.80;2.50;;;17.70;99.90;;;;;;4956644;29;20194;-79
2021/07/03 06:16:51;;;;;;;2.03;1.23;;;17.80;99.90;;;;;;4956012;28;20190;-78
2021/07/03 06:19:19;;;;;;;4.07;1.97;;;17.90;99.90;;;;;;4950140;28;20600;-77
2021/07/03 06:21:45;;;;;;;7.53;2.30;;;18.10;99.90;;;;;;4956597;28;20178;-77
2021/07/03 06:24:13;;;;;;;1.57;1.10;;;18.30;99.90;;;;;;4952891;28;20442;-77
2021/07/03 06:26:38;;;;;;;3.80;1.90;;;18.40;99.90;;;;;;4951446;29;20226;-77
2021/07/03 06:29:04;;;;;;;4.37;2.70;;;18.70;99.90;;;;;;4949355;29;20465;-77
2021/07/03 06:31:29;;;;;;;1.87;1.57;;;18.80;99.90;;;;;;4951301;29;20190;-77
2021/07/03 06:33:55;;;;;;;1.83;1.47;;;19.00;99.90;;;;;;4949222;29;20210;-79
2021/07/03 06:36:21;;;;;;;2.97;1.80;;;19.20;99.90;;;;;;4949148;29;20179;-79
2021/07/03 06:38:47;;;;;;;1.90;1.80;;;19.40;99.90;;;;;;4947432;29;20441;-79
2021/07/03 06:41:12;;;;;;;3.43;2.07;;;19.70;99.90;;;;;;4954476;28;20218;-78
2021/07/03 06:43:38;;;;;;;1.03;0.93;;;19.80;99.90;;;;;;4959155;28;20536;-79
2021/07/03 06:46:04;;;;;;;1.93;1.77;;;20.00;99.90;;;;;;4959045;28;20182;-79
2021/07/03 06:48:29;;;;;;;1.40;1.30;;;20.20;99.90;;;;;;4960334;28;20182;-82
2021/07/03 06:50:55;;;;;;;0.93;0.77;;;20.30;99.90;;;;;;4973804;28;20190;-80
2021/07/03 06:53:20;;;;;;;2.07;1.90;;;20.40;99.90;;;;;;4975357;28;20194;-79
2021/07/03 06:55:46;;;;;;;1.33;0.93;;;20.60;99.90;;;;;;4959712;28;20210;-79
2021/07/03 06:58:11;;;;;;;2.40;2.20;;;20.80;99.90;;;;;;4953631;28;20251;-78
2021/07/03 07:00:37;;;;;;;2.03;1.57;;;20.90;99.90;;;;;;4956420;28;20928;-79
2021/07/03 07:03:04;;;;;;;3.13;1.93;;;21.00;99.90;;;;;;4966801;28;20177;-79
2021/07/03 07:05:31;;;;;;;1.80;1.70;;;21.30;99.90;;;;;;4972457;28;20185;-79
2021/07/03 07:07:56;;;;;;;2.17;1.97;;;21.40;99.90;;;;;;4967765;28;20444;-78
2021/07/03 07:10:22;;;;;;;2.40;2.23;;;21.50;99.90;;;;;;4961211;29;20490;-78
2021/07/03 07:12:47;;;;;;;1.53;1.43;;;21.70;99.90;;;;;;4957941;28;20177;-79
2021/07/03 07:15:13;;;;;;;1.40;1.17;;;21.90;99.90;;;;;;4951565;28;20224;-79
2021/07/03 07:17:38;;;;;;;1.53;1.13;;;22.10;99.90;;;;;;4965271;28;20262;-80
2021/07/03 07:20:07;;;;;;;2.40;2.20;;;22.30;99.90;;;;;;4960808;28;20210;-79
2021/07/03 07:22:32;;;;;;;2.80;1.70;;;22.50;99.90;;;;;;4965603;29;20170;-80
2021/07/03 07:24:58;;;;;;;2.20;1.73;;;22.60;99.90;;;;;;4967701;28;20441;-79
2021/07/03 07:27:24;;;;;;;1.83;1.70;;;22.70;99.90;;;;;;4962204;28;20186;-79
2021/07/03 07:29:49;;;;;;;2.80;1.50;;;23.00;99.90;;;;;;4951015;28;20203;-79
2021/07/03 07:32:15;;;;;;;2.00;1.90;;;23.20;99.90;;;;;;4962818;28;20186;-79
2021/07/03 07:34:41;;;;;;;3.80;2.27;;;23.40;99.90;;;;;;4963935;28;20261;-78
2021/07/03 07:37:06;;;;;;;2.00;1.90;;;23.60;99.90;;;;;;4963720;28;20269;-79
2021/07/03 07:39:32;;;;;;;3.47;2.90;;;23.80;99.90;;;;;;4955542;28;20210;-79
2021/07/03 07:41:58;;;;;;;2.33;2.03;;;23.90;99.90;;;;;;4958387;28;20241;-79
2021/07/03 07:44:23;;;;;;;2.23;1.60;;;24.10;99.90;;;;;;4959485;28;20946;-79
2021/07/03 07:46:49;;;;;;;2.23;1.77;;;24.30;99.90;;;;;;4958068;28;20232;-79
2021/07/03 07:49:15;;;;;;;2.33;1.27;;;24.40;99.90;;;;;;4956823;28;20206;-78
2021/07/03 07:51:40;;;;;;;2.23;2.03;;;24.40;99.90;;;;;;4961659;28;20232;-80
2021/07/03 07:54:06;;;;;;;1.90;1.33;;;24.60;99.90;;;;;;4952617;28;20963;-80
2021/07/03 07:56:31;;;;;;;1.93;1.33;;;24.60;99.90;;;;;;4976881;28;20193;-79
2021/07/03 07:58:57;;;;;;;2.60;2.40;;;24.70;99.90;;;;;;4962255;29;20198;-79
2021/07/03 08:01:24;;;;;;;4.50;1.90;;;24.90;99.90;;;;;;4962418;28;20572;-79
2021/07/03 08:03:50;;;;;;;2.17;1.80;;;25.10;99.90;;;;;;4964711;28;20185;-79
2021/07/03 08:06:15;;;;;;;1.40;0.87;;;25.40;99.90;;;;;;4950042;28;20442;-79
2021/07/03 08:08:41;;;;;;;1.47;1.37;;;25.60;99.90;;;;;;4960172;28;20244;-79
2021/07/03 08:11:06;;;;;;;1.50;1.23;;;26.00;99.90;;;;;;4950329;29;20209;-80
2021/07/03 08:13:32;;;;;;;4.40;1.83;;;26.20;99.90;;;;;;4958052;28;20217;-81
2021/07/03 08:15:58;;;;;;;1.57;1.47;;;26.30;99.90;;;;;;4960027;28;20261;-80
2021/07/03 08:18:23;;;;;;;1.30;1.20;;;26.60;99.90;;;;;;4956962;28;20190;-79
2021/07/03 08:20:50;;;;;;;1.00;0.90;;;26.80;99.90;;;;;;4959365;28;20213;-79
2021/07/03 08:23:15;;;;;;;3.00;2.70;;;27.00;99.90;;;;;;4956835;28;20193;-79
2021/07/03 08:25:41;;;;;;;4.30;2.70;;;27.10;99.90;;;;;;4954420;28;20434;-80
2021/07/03 08:28:07;;;;;;;1.17;1.00;;;27.50;99.90;;;;;;4974224;28;20590;-79
2021/07/03 08:30:34;;;;;;;1.87;1.17;;;27.80;99.90;;;;;;4963726;28;20457;-81
2021/07/03 08:33:00;;;;;;;2.87;2.57;;;28.00;99.90;;;;;;4968626;28;20206;-81
2021/07/03 08:35:26;;;;;;;1.47;1.20;;;28.10;99.90;;;;;;4982716;28;20441;-81
2021/07/03 08:37:51;;;;;;;4.00;1.83;;;28.40;99.90;;;;;;4966753;28;20496;-81
2021/07/03 08:40:17;;;;;;;4.40;2.20;;;28.60;99.90;;;;;;4963601;28;20218;-82
2021/07/03 08:42:44;;;;;;;2.87;2.60;;;28.60;99.90;;;;;;4961681;28;20174;-80
2021/07/03 08:45:10;;;;;;;1.80;1.50;;;28.80;99.90;;;;;;4958723;29;20469;-83
2021/07/03 08:47:43;;;;;;;1.73;1.63;;;29.10;99.90;;;;;;4964270;28;20488;-82
2021/07/03 08:50:12;;;;;;;1.70;1.60;;;29.40;99.90;;;;;;4958726;29;20577;-80
2021/07/03 08:52:37;;;;;;;3.20;2.90;;;29.60;99.90;;;;;;4957941;28;20500;-80
2021/07/03 08:55:11;;;;;;;4.80;2.30;;;29.90;99.90;;;;;;4955518;28;20530;-80
2021/07/03 08:57:50;;;;;;;2.63;1.20;;;30.00;99.90;;;;;;4957092;29;20197;-80
2021/07/03 09:00:21;;;;;;;5.40;2.20;;;30.00;96.40;;;;;;4952804;29;20531;-80
2021/07/03 09:02:47;;;;;;;1.60;1.50;;;30.30;97.80;;;;;;4958289;28;20444;-80
2021/07/03 09:05:24;;;;;;;2.13;2.03;;;30.60;96.80;;;;;;4959093;28;20429;-79
2021/07/03 09:07:55;;;;;;;3.50;3.30;;;31.00;94.80;;;;;;4958547;28;20444;-80
2021/07/03 09:10:22;;;;;;;1.73;1.30;;;31.10;92.20;;;;;;4957941;28;20466;-80
2021/07/03 09:12:50;;;;;;;1.20;0.90;;;31.40;90.30;;;;;;4962652;28;20446;-81
2021/07/03 09:15:19;;;;;;;1.30;1.10;;;31.30;89.10;;;;;;4960808;28;20426;-82
2021/07/03 09:17:50;;;;;;;2.80;2.17;;;31.80;91.30;;;;;;4968031;28;20454;-83
2021/07/03 09:20:28;;;;;;;3.27;2.37;;;31.90;82.90;;;;;;4957710;28;20475;-81
2021/07/03 09:23:05;;;;;;;1.47;1.37;;;32.00;78.10;;;;;;4966091;28;20437;-80
2021/07/03 09:25:31;;;;;;;1.40;0.93;;;32.20;78.50;;;;;;4969556;29;20438;-80
2021/07/03 09:28:07;;;;;;;1.20;1.10;;;32.30;77.30;;;;;;4956579;28;20422;-80
2021/07/03 09:30:33;;;;;;;2.03;1.60;;;32.40;75.70;;;;;;4960339;28;20449;-80
2021/07/03 09:32:59;;;;;;;1.50;1.40;;;32.90;79.30;;;;;;4953948;28;20965;-80
2021/07/03 09:35:24;;;;;;;1.67;1.57;;;32.80;79.90;;;;;;4958443;28;20674;-80
2021/07/03 09:37:50;;;;;;;2.50;1.47;;;32.70;72.30;;;;;;4964583;28;20187;-81
2021/07/03 09:40:16;;;;;;;1.10;1.00;;;32.60;69.90;;;;;;4964928;28;20217;-81
2021/07/03 09:42:42;;;;;;;1.93;1.33;;;32.90;71.80;;;;;;4959856;29;20174;-80
2021/07/03 09:45:09;;;;;;;1.50;1.40;;;33.10;73.50;;;;;;4957798;29;20424;-80
2021/07/03 09:47:36;;;;;;;1.80;1.40;;;33.40;70.70;;;;;;4953905;29;20512;-81
2021/07/03 09:50:11;;;;;;;2.23;2.03;;;33.60;65.90;;;;;;4953376;29;20990;-80
2021/07/03 09:52:37;;;;;;;1.53;1.43;;;33.50;64.10;;;;;;4942971;28;20466;-80
2021/07/03 09:55:07;;;;;;;2.17;1.03;;;33.70;64.00;;;;;;4938811;29;20490;-81
2021/07/03 09:57:35;;;;;;;1.50;1.40;;;33.80;59.70;;;;;;4940667;29;20829;-80
2021/07/03 10:00:01;;;;;;;1.30;1.00;;;34.10;61.80;;;;;;4938542;29;20458;-80
2021/07/03 10:02:28;;;;;;;1.83;1.73;;;34.10;55.70;;;;;;4952775;29;20474;-80
2021/07/03 10:05:01;;;;;;;1.50;1.33;;;34.30;56.90;;;;;;4952505;28;20194;-80
2021/07/03 10:07:51;;;;;;;0.93;0.83;;;34.50;55.70;;;;;;4943626;28;21015;-80
2021/07/03 10:10:29;;;;;;;1.63;1.17;;;34.80;57.80;;;;;;4954561;29;20457;-81
2021/07/03 10:13:26;;;;;;;1.00;0.90;;;34.90;55.90;;;;;;4938494;29;20428;-81
2021/07/03 10:16:04;;;;;;;1.30;1.10;;;34.80;51.40;;;;;;4944904;29;20437;-81
2021/07/03 10:18:31;;;;;;;1.53;1.43;;;34.80;50.80;;;;;;4941341;28;20971;-81
2021/07/03 10:21:07;;;;;;;1.40;1.30;;;35.10;52.10;;;;;;4956762;28;20449;-81
2021/07/03 10:23:42;;;;;;;2.00;1.90;;;35.20;52.30;;;;;;4958337;28;20448;-80
2021/07/03 10:26:09;;;;;;;1.63;1.53;;;35.00;51.40;;;;;;4955893;28;20417;-81
2021/07/03 10:28:38;;;;;;;1.83;1.07;;;35.10;51.10;;;;;;4955660;28;20418;-80
2021/07/03 10:31:32;;;;;;;2.70;1.20;;;35.20;53.90;;;;;;4958956;28;20466;-82
2021/07/03 10:33:58;;;;;;;1.50;1.40;;;35.40;53.10;;;;;;4954642;29;20425;-82
2021/07/03 10:36:29;;;;;;;1.47;1.37;;;35.20;51.30;;;;;;4968821;28;20422;-82
2021/07/03 10:38:56;;;;;;;1.40;1.10;;;35.20;55.30;;;;;;4953267;28;20475;-82
2021/07/03 10:41:27;;;;;;;1.10;1.00;;;35.40;52.70;;;;;;4982407;28;20457;-82
2021/07/03 10:44:04;;;;;;;2.07;1.97;;;35.40;55.20;;;;;;4955878;29;21065;-83
2021/07/03 10:46:35;;;;;;;1.30;1.20;;;35.80;54.60;;;;;;4968406;28;20449;-83
2021/07/03 10:49:04;;;;;;;1.20;1.10;;;36.20;52.60;;;;;;4969288;28;20491;-82
2021/07/03 10:51:41;;;;;;;1.33;1.23;;;36.30;52.70;;;;;;4968417;29;20429;-83
2021/07/03 10:54:37;;;;;;;1.80;1.33;;;36.30;52.70;;;;;;4972062;28;20422;-83
2021/07/03 10:57:04;;;;;;;1.60;1.50;;;36.20;51.20;;;;;;4964166;29;20442;-82
2021/07/03 10:59:36;;;;;;;1.67;1.53;;;36.60;53.30;;;;;;4960917;29;20447;-84
2021/07/03 11:02:13;;;;;;;1.30;1.20;;;36.90;52.40;;;;;;4968925;28;20426;-83
2021/07/03 11:04:47;;;;;;;1.20;1.10;;;36.90;51.60;;;;;;4969604;28;20409;-83
2021/07/03 11:07:17;;;;;;;1.53;1.33;;;36.90;50.00;;;;;;4970202;29;20469;-83
2021/07/03 11:09:44;;;;;;;2.23;2.03;;;36.90;49.30;;;;;;4969422;28;20445;-82
2021/07/03 11:12:15;;;;;;;1.57;1.17;;;36.50;51.80;;;;;;4970559;29;20433;-84
2021/07/03 11:14:50;;;;;;;1.20;1.07;;;36.80;51.90;;;;;;4971091;29;20504;-83
2021/07/03 11:17:17;;;;;;;1.27;1.17;;;36.70;50.40;;;;;;4968737;29;20432;-83
2021/07/03 11:19:47;;;;;;;1.30;1.10;;;36.40;50.30;;;;;;4951693;29;20490;-83
2021/07/03 11:22:27;;;;;;;1.20;1.07;;;36.30;50.00;;;;;;4967334;29;20446;-83
2021/07/03 11:24:55;;;;;;;1.43;1.30;;;36.40;51.20;;;;;;4969212;29;20444;-82
2021/07/03 11:27:29;;;;;;;1.33;1.23;;;36.30;51.70;;;;;;4968366;28;20238;-82
2021/07/03 11:29:55;;;;;;;1.40;1.30;;;36.00;50.30;;;;;;4962272;28;20453;-83
2021/07/03 11:32:22;;;;;;;1.23;1.13;;;35.80;51.60;;;;;;4950513;29;20438;-82
2021/07/03 11:34:56;;;;;;;2.40;1.07;;;35.70;53.40;;;;;;4949339;29;20450;-81
2021/07/03 11:37:29;;;;;;;2.07;1.87;;;35.40;52.30;;;;;;4952290;29;20422;-82
2021/07/03 11:39:56;;;;;;;1.10;1.00;;;35.10;50.80;;;;;;4980182;28;20462;-81
2021/07/03 11:42:30;;;;;;;1.30;1.20;;;34.90;52.70;;;;;;4969288;29;20432;-82
2021/07/03 11:44:57;;;;;;;1.20;1.10;;;34.70;52.30;;;;;;4967146;28;20430;-82
2021/07/03 11:47:43;;;;;;;1.60;1.50;;;34.30;51.90;;;;;;4961070;28;20434;-81
2021/07/03 11:50:33;;;;;;;1.10;1.00;;;34.00;51.80;;;;;;4970238;28;20469;-82
2021/07/03 11:53:02;;;;;;;1.10;1.00;;;33.60;53.70;;;;;;4964917;28;20482;-82
2021/07/03 11:55:33;;;;;;;1.43;1.13;;;33.60;55.60;;;;;;4951060;29;20450;-81
2021/07/03 11:58:01;;;;;;;1.50;1.17;;;33.70;56.00;;;;;;4954663;29;20457;-81
2021/07/03 12:00:32;;;;;;;1.27;1.17;;;33.80;54.10;;;;;;4961645;29;20513;-81
2021/07/03 12:02:58;;;;;;;1.40;1.30;;;33.80;54.60;;;;;;4972473;28;20414;-81
2021/07/03 12:05:32;;;;;;;1.83;1.10;;;33.60;53.00;;;;;;4967587;28;20430;-80
2021/07/03 12:08:09;;;;;;;1.10;1.00;;;33.50;54.00;;;;;;4955212;28;20418;-80
2021/07/03 12:10:42;;;;;;;1.60;1.50;;;33.50;54.90;;;;;;4969048;29;20457;-80
2021/07/03 12:13:17;;;;;;;1.63;1.23;;;33.60;56.70;;;;;;4971362;28;20429;-81
2021/07/03 12:15:44;;;;;;;1.30;1.20;;;33.50;56.40;;;;;;4964242;28;20428;-80
2021/07/03 12:18:09;;;;;;;1.17;1.00;;;33.40;55.20;;;;;;4954058;29;20433;-80
2021/07/03 12:20:35;;;;;;;1.40;1.30;;;33.40;57.50;;;;;;4953272;29;20498;-80
2021/07/03 12:23:05;;;;;;;1.30;1.10;;;33.40;61.60;;;;;;4953320;29;20186;-81
2021/07/03 12:25:33;;;;;;;1.07;0.90;;;33.30;54.90;;;;;;4969079;28;20189;-80
2021/07/03 12:28:01;;;;;;;1.57;1.23;;;33.30;58.60;;;;;;4987052;28;20445;-81
2021/07/03 12:30:29;;;;;;;2.10;1.10;;;33.20;58.40;;;;;;4970835;28;20464;-79
2021/07/03 12:33:07;;;;;;;1.40;1.30;;;33.00;57.60;;;;;;4962680;28;20434;-80
2021/07/03 12:35:41;;;;;;;2.20;1.50;;;33.10;58.50;;;;;;4960335;29;20458;-80
2021/07/03 12:38:10;;;;;;;1.10;1.00;;;33.00;57.80;;;;;;4952380;29;20802;-80
2021/07/03 12:40:42;;;;;;;1.30;1.00;;;33.00;59.80;;;;;;4963670;28;20466;-80
2021/07/03 12:43:08;;;;;;;1.70;1.40;;;33.10;57.80;;;;;;4963140;28;20429;-81
2021/07/03 12:45:35;;;;;;;1.20;1.10;;;33.40;57.70;;;;;;4965659;29;20445;-81
2021/07/03 12:48:11;;;;;;;1.10;1.00;;;33.40;58.20;;;;;;4965313;28;20778;-81
2021/07/03 12:50:38;;;;;;;1.40;1.30;;;33.40;55.60;;;;;;4961785;29;20454;-80